sensor_id;sensor_type;location;lat;lon;timestamp;pressure;altitude;pressure_sealevel;temperature;humidity
6150;BME280;3106;42.670;23.318;2022-12-18T13:17:16;95625.66;;;4.64;88.54
6150;BME280;3106;42.670;23.318;2022-12-18T13:19:48;95697.63;;;5.15;88.91
6150;BME280;3106;42.670;23.318;2022-12-18T13:22:32;95649.78;;;4.63;88.88
6150;BME280;3106;42.670;23.318;2022-12-18T13:25:33;95709.72;;;4.92;90.21
6150;BME280;3106;42.670;23.318;2022-12-18T13:28:08;95726.25;;;5.13;90.87
6150;BME280;3106;42.670;23.318;2022-12-18T13:30:51;95704.66;;;4.96;90.47
6150;BME280;3106;42.670;23.318;2022-12-18T13:33:51;95744.75;;;5.23;90.07
6150;BME280;3106;42.670;23.318;2022-12-18T13:36:38;95716.22;;;5.10;89.66
6150;BME280;3106;42.670;23.318;2022-12-18T13:39:31;95709.09;;;5.05;90.17
6150;BME280;3106;42.670;23.318;2022-12-18T13:45:39;95733.56;;;5.26;89.33
6150;BME280;3106;42.670;23.318;2022-12-18T13:48:15;95745.63;;;5.08;89.80
6150;BME280;3106;42.670;23.318;2022-12-18T13:50:48;95685.19;;;4.72;89.67
6150;BME280;3106;42.670;23.318;2022-12-18T13:53:21;95724.06;;;4.86;90.21
6150;BME280;3106;42.670;23.318;2022-12-18T13:55:50;95724.56;;;4.88;90.45
6150;BME280;3106;42.670;23.318;2022-12-18T13:58:17;95737.56;;;4.85;90.64
6150;BME280;3106;42.670;23.318;2022-12-18T14:00:44;95705.03;;;4.79;90.45
6150;BME280;3106;42.670;23.318;2022-12-18T14:03:18;95738.34;;;4.90;89.76
6150;BME280;3106;42.670;23.318;2022-12-18T14:05:54;95717.75;;;4.72;87.91
6150;BME280;3106;42.670;23.318;2022-12-18T14:08:23;95731.53;;;4.79;87.78
6150;BME280;3106;42.670;23.318;2022-12-18T14:10:51;95670.59;;;4.36;87.65
6150;BME280;3106;42.670;23.318;2022-12-18T14:13:24;95688.78;;;4.47;88.22
6150;BME280;3106;42.670;23.318;2022-12-18T14:15:55;95739.19;;;4.81;87.49
6150;BME280;3106;42.670;23.318;2022-12-18T14:18:34;95734.97;;;4.75;87.30
6150;BME280;3106;42.670;23.318;2022-12-18T14:21:18;95762.72;;;4.87;86.28
6150;BME280;3106;42.670;23.318;2022-12-18T14:23:47;95774.09;;;4.88;86.10
6150;BME280;3106;42.670;23.318;2022-12-18T14:26:24;95735.63;;;4.57;86.05
6150;BME280;3106;42.670;23.318;2022-12-18T14:28:54;95746.97;;;4.62;86.13
6150;BME280;3106;42.670;23.318;2022-12-18T14:31:24;95773.38;;;4.82;85.45
6150;BME280;3106;42.670;23.318;2022-12-18T14:33:52;95783.13;;;4.87;85.38
6150;BME280;3106;42.670;23.318;2022-12-18T14:36:24;95750.13;;;4.64;85.12
6150;BME280;3106;42.670;23.318;2022-12-18T14:38:55;95743.56;;;4.57;85.53
6150;BME280;3106;42.670;23.318;2022-12-18T14:41:31;95735.84;;;4.60;85.41
6150;BME280;3106;42.670;23.318;2022-12-18T14:44:05;95727.69;;;4.57;85.57
6150;BME280;3106;42.670;23.318;2022-12-18T14:46:49;95738.75;;;4.64;85.28
6150;BME280;3106;42.670;23.318;2022-12-18T20:34:27;96078.19;;;2.04;92.96
6150;BME280;3106;42.670;23.318;2022-12-18T20:36:54;96051.41;;;1.91;93.41
6150;BME280;3106;42.670;23.318;2022-12-18T20:39:21;96018.19;;;1.63;92.12
6150;BME280;3106;42.670;23.318;2022-12-18T20:41:50;96051.50;;;1.74;93.37
6150;BME280;3106;42.670;23.318;2022-12-18T20:44:18;96053.91;;;1.76;92.62
6150;BME280;3106;42.670;23.318;2022-12-18T20:46:45;96066.03;;;1.77;93.09
6150;BME280;3106;42.670;23.318;2022-12-18T20:49:12;96049.69;;;1.53;93.40
6150;BME280;3106;42.670;23.318;2022-12-18T21:27:53;96104.34;;;1.63;93.69
6150;BME280;3106;42.670;23.318;2022-12-18T21:30:20;96095.03;;;1.55;93.13
6150;BME280;3106;42.670;23.318;2022-12-18T21:32:47;96086.66;;;1.37;93.34
6150;BME280;3106;42.670;23.318;2022-12-18T21:35:14;96059.25;;;1.17;94.16
6150;BME280;3106;42.670;23.318;2022-12-18T21:37:41;96101.91;;;1.35;94.70
6150;BME280;3106;42.670;23.318;2022-12-18T21:40:08;96080.44;;;1.27;95.04
6150;BME280;3106;42.670;23.318;2022-12-18T21:42:36;96045.25;;;0.95;94.99
6150;BME280;3106;42.670;23.318;2022-12-18T21:45:21;96061.44;;;1.03;94.59
6150;BME280;3106;42.670;23.318;2022-12-18T21:47:48;96073.47;;;0.99;94.26
6150;BME280;3106;42.670;23.318;2022-12-18T21:50:15;96095.69;;;1.25;94.86
6150;BME280;3106;42.670;23.318;2022-12-18T21:52:42;96060.56;;;1.19;94.12
6150;BME280;3106;42.670;23.318;2022-12-18T21:55:09;96080.22;;;1.28;94.17
6150;BME280;3106;42.670;23.318;2022-12-18T22:05:26;96108.94;;;1.13;94.87
6150;BME280;3106;42.670;23.318;2022-12-18T22:07:52;96121.16;;;1.03;95.15
6150;BME280;3106;42.670;23.318;2022-12-18T22:10:19;96052.47;;;0.66;95.12
6150;BME280;3106;42.670;23.318;2022-12-18T22:12:46;96110.63;;;1.19;96.12
6150;BME280;3106;42.670;23.318;2022-12-18T22:15:13;96068.44;;;0.98;95.34
6150;BME280;3106;42.670;23.318;2022-12-18T22:17:40;96084.63;;;1.06;95.30
6150;BME280;3106;42.670;23.318;2022-12-18T22:20:09;96086.47;;;0.89;95.58
6150;BME280;3106;42.670;23.318;2022-12-18T22:22:37;96099.97;;;0.93;96.04
6150;BME280;3106;42.670;23.318;2022-12-18T22:25:06;96060.44;;;0.71;95.81
6150;BME280;3106;42.670;23.318;2022-12-18T22:27:34;96097.88;;;0.95;95.27
6150;BME280;3106;42.670;23.318;2022-12-18T22:30:01;96054.03;;;0.84;95.39
6150;BME280;3106;42.670;23.318;2022-12-18T22:32:31;96044.00;;;0.81;95.27
6150;BME280;3106;42.670;23.318;2022-12-18T22:34:59;96080.53;;;1.15;94.67
6150;BME280;3106;42.670;23.318;2022-12-18T22:37:26;96058.72;;;0.98;94.96
6150;BME280;3106;42.670;23.318;2022-12-18T22:39:54;96045.56;;;0.98;94.28
6150;BME280;3106;42.670;23.318;2022-12-18T22:42:28;96094.38;;;1.27;94.31
6150;BME280;3106;42.670;23.318;2022-12-18T22:44:55;96029.59;;;0.88;94.66
6150;BME280;3106;42.670;23.318;2022-12-18T22:47:25;96042.66;;;1.00;94.15
6150;BME280;3106;42.670;23.318;2022-12-18T22:49:52;96085.78;;;1.32;94.67
6150;BME280;3106;42.670;23.318;2022-12-18T22:52:19;96007.69;;;0.83;94.84
6150;BME280;3106;42.670;23.318;2022-12-18T22:54:46;96065.94;;;1.08;95.20
6150;BME280;3106;42.670;23.318;2022-12-18T22:57:15;96019.00;;;0.83;94.43
6150;BME280;3106;42.670;23.318;2022-12-18T22:59:42;96040.22;;;0.93;94.93
6150;BME280;3106;42.670;23.318;2022-12-18T23:02:09;96053.41;;;0.93;95.65
6150;BME280;3106;42.670;23.318;2022-12-18T23:04:37;96068.75;;;1.18;94.74
6150;BME280;3106;42.670;23.318;2022-12-18T23:07:04;96072.75;;;1.25;93.96
6150;BME280;3106;42.670;23.318;2022-12-18T23:09:32;96041.22;;;1.09;93.92
6150;BME280;3106;42.670;23.318;2022-12-18T23:11:59;96092.88;;;1.31;94.48
6150;BME280;3106;42.670;23.318;2022-12-18T23:14:34;96070.91;;;1.04;94.50
6150;BME280;3106;42.670;23.318;2022-12-18T23:17:15;96072.94;;;0.97;94.66
6150;BME280;3106;42.670;23.318;2022-12-18T23:19:42;96072.50;;;1.05;94.20
6150;BME280;3106;42.670;23.318;2022-12-18T23:22:09;96050.38;;;0.85;94.13
6150;BME280;3106;42.670;23.318;2022-12-18T23:24:36;96084.56;;;1.01;94.36
6150;BME280;3106;42.670;23.318;2022-12-18T23:27:08;96011.50;;;0.54;93.88
6150;BME280;3106;42.670;23.318;2022-12-18T23:33:09;96072.13;;;0.80;95.30
